Time;durP1;ratioP1;P1;durP2;ratioP2;P2;SDS_P1;SDS_P2;PMS_P1;PMS_P2;Temp;Humidity;BMP_temperature;BMP_pressure;BME280_temperature;BME280_humidity;BME280_pressure;Samples;Min_cycle;Max_cycle;Signal;HPM_P1;HPM_P2
2022/05/19 00:01:38;;;;;;;45.38;43.05;;;;;;;;;;5032165;28;20041;-64
2022/05/19 00:04:03;;;;;;;37.95;35.95;;;;;;;;;;5029216;28;20634;-64
2022/05/19 00:06:29;;;;;;;44.38;42.13;;;;;;;;;;5026443;28;20045;-65
2022/05/19 00:08:54;;;;;;;36.28;34.38;;;;;;;;;;5030299;28;20069;-65
2022/05/19 00:11:27;;;;;;;25.65;24.27;;;;;;;;;;5032151;28;20147;-65
2022/05/19 00:13:53;;;;;;;22.50;21.27;;;;;;;;;;5028604;28;20025;-64
2022/05/19 00:16:18;;;;;;;26.40;24.98;;;;;;;;;;5026756;28;20033;-65
2022/05/19 00:18:43;;;;;;;20.80;19.65;;;;;;;;;;5029283;28;20075;-65
2022/05/19 00:21:09;;;;;;;23.52;22.27;;;;;;;;;;5024469;28;20062;-63
2022/05/19 00:23:34;;;;;;;19.35;18.23;;;;;;;;;;5028698;28;20037;-63
2022/05/19 00:25:59;;;;;;;22.45;21.23;;;;;;;;;;5028550;28;20029;-65
2022/05/19 00:28:25;;;;;;;21.25;20.08;;;;;;;;;;5028815;28;20118;-65
2022/05/19 00:30:50;;;;;;;25.92;24.52;;;;;;;;;;5029904;28;20107;-64
2022/05/19 00:33:15;;;;;;;31.55;29.90;;;;;;;;;;5029915;28;20060;-62
2022/05/19 00:35:41;;;;;;;24.48;23.17;;;;;;;;;;5025841;28;20061;-63
2022/05/19 00:38:07;;;;;;;23.77;22.42;;;;;;;;;;5026986;28;20525;-63
2022/05/19 00:40:33;;;;;;;26.63;25.00;;;;;;;;;;5024629;28;20037;-63
2022/05/19 00:42:59;;;;;;;23.65;22.35;;;;;;;;;;5026296;28;20446;-62
2022/05/19 00:45:28;;;;;;;25.95;24.58;;;;;;;;;;5028024;28;20129;-62
2022/05/19 00:48:12;;;;;;;26.95;25.50;;;;;;;;;;5027668;28;20036;-62
2022/05/19 00:50:43;;;;;;;28.17;26.67;;;;;;;;;;5025835;28;20554;-61
2022/05/19 00:53:28;;;;;;;23.67;22.38;;;;;;;;;;5026929;28;20444;-64
2022/05/19 00:55:55;;;;;;;29.88;28.23;;;;;;;;;;5024671;28;20037;-64
2022/05/19 00:58:26;;;;;;;28.70;27.20;;;;;;;;;;5028161;28;20526;-64
2022/05/19 01:00:51;;;;;;;28.92;27.42;;;;;;;;;;5029584;28;20034;-64
2022/05/19 01:03:19;;;;;;;23.52;22.25;;;;;;;;;;5031568;28;20033;-64
2022/05/19 01:05:57;;;;;;;28.27;26.77;;;;;;;;;;5032827;28;20029;-64
2022/05/19 01:08:29;;;;;;;22.45;21.25;;;;;;;;;;5026514;28;20152;-64
2022/05/19 01:10:57;;;;;;;26.60;25.17;;;;;;;;;;5030968;28;20029;-64
2022/05/19 01:13:25;;;;;;;24.65;23.20;;;;;;;;;;5024424;28;20144;-64
2022/05/19 01:15:52;;;;;;;27.52;26.05;;;;;;;;;;5029863;28;20047;-64
2022/05/19 01:18:18;;;;;;;27.88;26.30;;;;;;;;;;5028430;28;20064;-64
2022/05/19 01:20:46;;;;;;;24.33;23.02;;;;;;;;;;5025082;28;20056;-65
2022/05/19 01:23:32;;;;;;;21.52;20.33;;;;;;;;;;5026127;28;20092;-65
2022/05/19 01:26:29;;;;;;;27.20;25.63;;;;;;;;;;5025479;28;20091;-64
2022/05/19 01:28:57;;;;;;;24.90;23.55;;;;;;;;;;5020115;28;20033;-64
2022/05/19 01:31:33;;;;;;;24.30;23.00;;;;;;;;;;5026236;28;20025;-64
2022/05/19 01:34:01;;;;;;;25.80;24.40;;;;;;;;;;5025148;28;20044;-64
2022/05/19 01:36:26;;;;;;;22.00;20.75;;;;;;;;;;5025321;28;20139;-64
2022/05/19 01:39:00;;;;;;;34.92;33.08;;;;;;;;;;5025595;28;20199;-65
2022/05/19 01:41:52;;;;;;;28.73;27.20;;;;;;;;;;5027104;28;20062;-65
2022/05/19 01:44:30;;;;;;;21.48;20.33;;;;;;;;;;5027420;28;20387;-65
2022/05/19 01:47:26;;;;;;;30.00;28.40;;;;;;;;;;5022674;28;20033;-65
2022/05/19 01:50:09;;;;;;;31.25;29.63;;;;;;;;;;5025356;28;20033;-64
2022/05/19 01:52:54;;;;;;;23.63;22.33;;;;;;;;;;5025740;28;20475;-64
2022/05/19 01:55:25;;;;;;;27.67;26.17;;;;;;;;;;5026684;28;20399;-65
2022/05/19 01:58:02;;;;;;;26.52;24.63;;;;;;;;;;5025590;28;20568;-64
2022/05/19 02:00:29;;;;;;;26.88;25.17;;;;;;;;;;5024568;28;20037;-65
2022/05/19 02:03:04;;;;;;;26.50;25.10;;;;;;;;;;5024898;28;20499;-65
2022/05/19 02:05:50;;;;;;;23.52;22.23;;;;;;;;;;5025490;28;20037;-65
2022/05/19 02:08:29;;;;;;;24.77;23.25;;;;;;;;;;5022029;28;20041;-65
2022/05/19 02:10:58;;;;;;;33.03;31.30;;;;;;;;;;5024991;28;20029;-65
2022/05/19 02:13:24;;;;;;;25.52;24.15;;;;;;;;;;5025787;28;20037;-65
2022/05/19 02:15:51;;;;;;;21.33;20.15;;;;;;;;;;5025950;28;20041;-64
2022/05/19 02:18:20;;;;;;;32.58;30.65;;;;;;;;;;5029304;28;20053;-65
2022/05/19 02:20:47;;;;;;;23.95;22.60;;;;;;;;;;5026800;28;20524;-65
2022/05/19 02:23:15;;;;;;;25.70;24.35;;;;;;;;;;5028330;28;20041;-64
2022/05/19 02:25:47;;;;;;;24.98;23.63;;;;;;;;;;5026715;28;20040;-63
2022/05/19 02:28:18;;;;;;;24.27;22.98;;;;;;;;;;5025799;28;20029;-64
2022/05/19 02:30:45;;;;;;;26.02;24.65;;;;;;;;;;5025563;28;20067;-63
2022/05/19 02:33:15;;;;;;;26.52;24.85;;;;;;;;;;5028373;28;20029;-63
2022/05/19 02:35:42;;;;;;;23.98;22.70;;;;;;;;;;5023980;28;20430;-64
2022/05/19 02:38:07;;;;;;;30.33;28.73;;;;;;;;;;5025135;28;20052;-64
2022/05/19 02:40:34;;;;;;;26.27;24.88;;;;;;;;;;5027586;28;20029;-64
2022/05/19 02:43:01;;;;;;;22.08;20.88;;;;;;;;;;5026017;28;20116;-64
2022/05/19 02:45:28;;;;;;;21.17;20.02;;;;;;;;;;5027274;28;20542;-63
2022/05/19 02:47:54;;;;;;;17.20;16.20;;;;;;;;;;5024309;28;20029;-63
2022/05/19 02:50:20;;;;;;;23.38;22.13;;;;;;;;;;5023397;28;20116;-63
2022/05/19 02:52:46;;;;;;;23.48;22.05;;;;;;;;;;5025241;28;20033;-64
2022/05/19 02:55:12;;;;;;;21.05;19.90;;;;;;;;;;5026311;28;20033;-64
2022/05/19 02:57:38;;;;;;;24.02;22.67;;;;;;;;;;5021978;28;20338;-64
2022/05/19 03:00:07;;;;;;;25.65;24.25;;;;;;;;;;5027772;28;20037;-64
2022/05/19 03:02:32;;;;;;;24.58;23.27;;;;;;;;;;5025134;28;20041;-64
2022/05/19 03:04:58;;;;;;;22.10;20.80;;;;;;;;;;5024436;28;20047;-64
2022/05/19 03:07:24;;;;;;;25.52;24.13;;;;;;;;;;5022453;28;20116;-64
2022/05/19 03:09:50;;;;;;;24.20;22.90;;;;;;;;;;5025554;28;20120;-63
2022/05/19 03:12:15;;;;;;;19.00;17.90;;;;;;;;;;5028906;28;20647;-63
2022/05/19 03:14:41;;;;;;;19.67;18.58;;;;;;;;;;5026841;28;20039;-63
2022/05/19 03:17:08;;;;;;;20.60;19.50;;;;;;;;;;5027542;28;20420;-63
2022/05/19 03:19:35;;;;;;;20.30;19.10;;;;;;;;;;5025796;28;20025;-63
2022/05/19 03:22:02;;;;;;;20.38;19.27;;;;;;;;;;5022317;28;20049;-63
2022/05/19 03:24:28;;;;;;;20.75;19.65;;;;;;;;;;5027590;28;20029;-63
2022/05/19 03:26:53;;;;;;;22.15;20.92;;;;;;;;;;5026286;28;20041;-63
2022/05/19 03:29:19;;;;;;;24.75;23.38;;;;;;;;;;5025885;28;20037;-63
2022/05/19 03:31:44;;;;;;;25.58;24.17;;;;;;;;;;5026297;28;20025;-63
2022/05/19 03:34:10;;;;;;;19.95;18.85;;;;;;;;;;5027056;28;20029;-63
2022/05/19 03:36:35;;;;;;;20.35;19.20;;;;;;;;;;5023469;28;20029;-63
2022/05/19 03:39:01;;;;;;;18.08;17.10;;;;;;;;;;5022985;28;20093;-64
2022/05/19 03:41:26;;;;;;;13.32;12.52;;;;;;;;;;5027252;28;20034;-63
2022/05/19 03:43:52;;;;;;;14.65;13.80;;;;;;;;;;5023761;28;20486;-63
2022/05/19 03:46:17;;;;;;;16.10;15.15;;;;;;;;;;5027543;28;20037;-63
2022/05/19 03:48:42;;;;;;;13.95;13.15;;;;;;;;;;5026117;28;20103;-63
2022/05/19 03:51:17;;;;;;;13.25;12.45;;;;;;;;;;5025676;28;20048;-63
2022/05/19 03:53:42;;;;;;;16.58;15.57;;;;;;;;;;5024558;28;20082;-63
2022/05/19 03:56:07;;;;;;;10.82;10.13;;;;;;;;;;5025156;28;20513;-63
2022/05/19 03:58:33;;;;;;;11.32;10.63;;;;;;;;;;5027179;28;20125;-63
2022/05/19 04:00:58;;;;;;;13.25;12.45;;;;;;;;;;5024447;28;20041;-63
2022/05/19 04:03:24;;;;;;;13.77;12.98;;;;;;;;;;5026367;28;20037;-63
2022/05/19 04:05:49;;;;;;;15.18;14.18;;;;;;;;;;5024264;28;20095;-63
2022/05/19 04:08:14;;;;;;;18.65;17.65;;;;;;;;;;5024730;28;20107;-63
2022/05/19 04:10:44;;;;;;;17.42;16.42;;;;;;;;;;5025000;28;20033;-63
2022/05/19 04:13:11;;;;;;;14.75;13.95;;;;;;;;;;5023767;28;20037;-63
2022/05/19 04:15:36;;;;;;;10.50;9.90;;;;;;;;;;5028179;28;20066;-63
2022/05/19 04:18:02;;;;;;;14.93;13.73;;;;;;;;;;5029915;28;20080;-63
2022/05/19 04:20:30;;;;;;;10.23;9.60;;;;;;;;;;5030613;28;20036;-63
2022/05/19 04:22:56;;;;;;;13.55;12.75;;;;;;;;;;5030244;28;20045;-64
2022/05/19 04:25:22;;;;;;;15.13;14.23;;;;;;;;;;5029085;28;20033;-63
2022/05/19 04:27:47;;;;;;;11.15;10.45;;;;;;;;;;5028913;28;20029;-63
2022/05/19 04:30:13;;;;;;;10.68;9.98;;;;;;;;;;5031668;28;20413;-63
2022/05/19 04:32:38;;;;;;;15.15;14.25;;;;;;;;;;5027764;28;20443;-63
2022/05/19 04:35:04;;;;;;;18.42;17.42;;;;;;;;;;5028627;28;20128;-63
2022/05/19 04:37:29;;;;;;;13.75;12.95;;;;;;;;;;5027261;28;20057;-63
2022/05/19 04:39:55;;;;;;;13.50;12.70;;;;;;;;;;5030682;28;20087;-63
2022/05/19 04:42:20;;;;;;;15.02;14.18;;;;;;;;;;5029166;28;20100;-64
2022/05/19 04:44:46;;;;;;;17.80;16.77;;;;;;;;;;5027625;28;20048;-63
2022/05/19 04:47:11;;;;;;;13.52;12.73;;;;;;;;;;5029102;28;20419;-63
2022/05/19 04:49:36;;;;;;;14.10;13.30;;;;;;;;;;5028608;28;20352;-64
2022/05/19 04:52:02;;;;;;;15.32;14.43;;;;;;;;;;5030421;28;20043;-64
2022/05/19 04:54:27;;;;;;;15.30;14.40;;;;;;;;;;5026725;28;20426;-64
2022/05/19 04:56:53;;;;;;;18.50;17.48;;;;;;;;;;5029482;28;20060;-63
2022/05/19 04:59:19;;;;;;;18.42;17.38;;;;;;;;;;5031080;28;20047;-64
2022/05/19 05:01:46;;;;;;;20.10;18.90;;;;;;;;;;5029524;28;20852;-64
2022/05/19 05:04:12;;;;;;;18.20;17.20;;;;;;;;;;5029756;28;20136;-63
2022/05/19 05:06:38;;;;;;;15.13;14.23;;;;;;;;;;5027600;28;20072;-64
2022/05/19 05:09:04;;;;;;;15.93;14.93;;;;;;;;;;5029950;28;20041;-63
2022/05/19 05:11:30;;;;;;;18.55;17.55;;;;;;;;;;5028727;28;20033;-64
2022/05/19 05:13:56;;;;;;;16.30;15.40;;;;;;;;;;5027575;28;20072;-63
2022/05/19 05:16:21;;;;;;;19.05;17.95;;;;;;;;;;5028023;28;20060;-64
2022/05/19 05:18:46;;;;;;;17.45;16.48;;;;;;;;;;5030056;28;20072;-64
2022/05/19 05:21:13;;;;;;;19.02;17.92;;;;;;;;;;5029079;28;20092;-63
2022/05/19 05:23:39;;;;;;;14.68;13.73;;;;;;;;;;5028829;28;20340;-64
2022/05/19 05:26:06;;;;;;;13.25;12.45;;;;;;;;;;5025594;28;20045;-64
2022/05/19 05:28:32;;;;;;;11.65;10.95;;;;;;;;;;5029840;28;20075;-64
2022/05/19 05:30:58;;;;;;;12.35;11.55;;;;;;;;;;5029352;28;20033;-64
2022/05/19 05:33:23;;;;;;;10.85;10.15;;;;;;;;;;5029794;28;20036;-64
2022/05/19 05:35:49;;;;;;;10.32;9.68;;;;;;;;;;5026788;28;20108;-64
2022/05/19 05:38:14;;;;;;;8.75;8.15;;;;;;;;;;5031102;28;20033;-64
2022/05/19 05:40:40;;;;;;;12.95;12.15;;;;;;;;;;5031118;28;20037;-64
2022/05/19 05:43:07;;;;;;;14.40;13.50;;;;;;;;;;5029814;28;20029;-64
2022/05/19 05:45:33;;;;;;;6.93;6.43;;;;;;;;;;5025852;28;20046;-64
2022/05/19 05:47:58;;;;;;;8.10;7.60;;;;;;;;;;5025776;28;20040;-64
2022/05/19 05:50:24;;;;;;;8.60;7.80;;;;;;;;;;5027184;28;20095;-64
2022/05/19 05:52:49;;;;;;;12.18;11.40;;;;;;;;;;5030579;28;20063;-64
2022/05/19 05:55:15;;;;;;;8.23;7.72;;;;;;;;;;5030738;28;20033;-63
2022/05/19 05:57:40;;;;;;;8.32;7.75;;;;;;;;;;5029291;28;20056;-64
2022/05/19 06:00:09;;;;;;;8.38;7.78;;;;;;;;;;5026755;28;20505;-64
2022/05/19 06:02:34;;;;;;;12.80;12.00;;;;;;;;;;5028344;28;20053;-65
2022/05/19 06:05:00;;;;;;;12.00;11.30;;;;;;;;;;5028060;28;20670;-64
2022/05/19 06:07:27;;;;;;;10.25;9.65;;;;;;;;;;5027704;28;20076;-65
2022/05/19 06:09:53;;;;;;;12.30;11.50;;;;;;;;;;5028846;28;20070;-64
2022/05/19 06:12:19;;;;;;;11.30;10.63;;;;;;;;;;5037807;28;20637;-64
2022/05/19 06:14:44;;;;;;;11.27;10.57;;;;;;;;;;5032275;28;20051;-64
2022/05/19 06:17:10;;;;;;;7.90;7.40;;;;;;;;;;5035753;28;20021;-64
2022/05/19 06:19:35;;;;;;;9.07;8.48;;;;;;;;;;5026980;28;20039;-65
2022/05/19 06:22:00;;;;;;;15.07;14.23;;;;;;;;;;5028028;28;20091;-65
2022/05/19 06:24:26;;;;;;;9.25;8.65;;;;;;;;;;5027543;28;20040;-64
2022/05/19 06:26:51;;;;;;;8.27;7.78;;;;;;;;;;5024440;28;20064;-64
2022/05/19 06:29:17;;;;;;;12.10;11.35;;;;;;;;;;5035032;28;20041;-64
2022/05/19 06:31:42;;;;;;;11.02;10.27;;;;;;;;;;5032599;28;20121;-65
2022/05/19 06:34:07;;;;;;;12.63;11.82;;;;;;;;;;5033452;28;20037;-64
2022/05/19 06:36:33;;;;;;;15.18;14.27;;;;;;;;;;5037412;28;20108;-65
2022/05/19 06:38:58;;;;;;;18.77;17.77;;;;;;;;;;5033328;28;20029;-65
2022/05/19 06:44:08;;;;;;;16.77;15.82;;;;;;;;;;5030381;28;20034;-65
2022/05/19 06:46:34;;;;;;;18.17;17.17;;;;;;;;;;5035330;28;20048;-65
2022/05/19 06:49:02;;;;;;;23.35;22.10;;;;;;;;;;5032726;28;20029;-65
2022/05/19 06:51:28;;;;;;;20.00;18.90;;;;;;;;;;5032882;28;20032;-65
2022/05/19 06:53:54;;;;;;;15.68;14.77;;;;;;;;;;5036519;28;20116;-65
2022/05/19 06:56:19;;;;;;;23.98;22.73;;;;;;;;;;5028903;28;20111;-65
2022/05/19 06:58:44;;;;;;;26.95;25.52;;;;;;;;;;5029026;28;20033;-65
2022/05/19 07:01:10;;;;;;;16.65;15.73;;;;;;;;;;5030595;28;20033;-66
2022/05/19 07:03:36;;;;;;;29.52;27.98;;;;;;;;;;5032949;28;20040;-65
2022/05/19 07:06:01;;;;;;;40.70;38.53;;;;;;;;;;5031936;28;20124;-66
2022/05/19 07:08:26;;;;;;;29.67;28.08;;;;;;;;;;5034149;28;20030;-65
2022/05/19 07:10:52;;;;;;;35.55;33.70;;;;;;;;;;5035119;28;20126;-65
2022/05/19 07:13:17;;;;;;;35.67;33.85;;;;;;;;;;5032986;28;20028;-65
2022/05/19 07:15:43;;;;;;;40.55;38.45;;;;;;;;;;5033706;28;20516;-65
2022/05/19 07:18:09;;;;;;;40.38;38.33;;;;;;;;;;5032951;28;20021;-66
2022/05/19 07:20:44;;;;;;;34.58;32.80;;;;;;;;;;5031906;28;20034;-65
2022/05/19 07:23:16;;;;;;;33.35;31.60;;;;;;;;;;5035850;28;20029;-65
2022/05/19 07:25:43;;;;;;;39.55;37.53;;;;;;;;;;5028397;28;20564;-65
2022/05/19 07:28:09;;;;;;;24.83;23.52;;;;;;;;;;5031742;28;20057;-65
2022/05/19 07:30:35;;;;;;;40.75;38.58;;;;;;;;;;5034278;28;20055;-66
2022/05/19 07:33:01;;;;;;;26.42;25.02;;;;;;;;;;5033862;28;20033;-65
2022/05/19 07:35:27;;;;;;;23.75;22.45;;;;;;;;;;5032071;28;20068;-64
2022/05/19 07:37:52;;;;;;;21.70;20.55;;;;;;;;;;5031868;28;20049;-65
2022/05/19 07:40:19;;;;;;;35.38;33.47;;;;;;;;;;5031223;28;20076;-65
2022/05/19 07:42:44;;;;;;;19.85;18.75;;;;;;;;;;5031261;28;20462;-65
2022/05/19 07:45:10;;;;;;;14.75;13.93;;;;;;;;;;5033627;28;20039;-65
2022/05/19 07:47:36;;;;;;;18.23;17.23;;;;;;;;;;5036443;28;20038;-65
2022/05/19 07:50:03;;;;;;;21.45;20.27;;;;;;;;;;5029519;28;20425;-65
2022/05/19 07:52:28;;;;;;;16.17;15.27;;;;;;;;;;5034058;28;20025;-65
2022/05/19 07:54:54;;;;;;;13.18;12.38;;;;;;;;;;5038130;28;20041;-65
2022/05/19 07:57:20;;;;;;;11.60;10.90;;;;;;;;;;5034677;28;20061;-66
2022/05/19 07:59:46;;;;;;;11.90;11.20;;;;;;;;;;5033846;28;20169;-65
2022/05/19 08:02:12;;;;;;;11.40;10.70;;;;;;;;;;5034060;28;20048;-65
2022/05/19 08:04:38;;;;;;;12.95;12.15;;;;;;;;;;5036294;28;20040;-66
2022/05/19 08:07:04;;;;;;;13.05;12.25;;;;;;;;;;5038920;28;20557;-66
2022/05/19 08:12:15;;;;;;;21.27;20.15;;;;;;;;;;5035494;28;20103;-66
2022/05/19 08:17:24;;;;;;;10.68;10.02;;;;;;;;;;5038637;28;20630;-66
2022/05/19 08:19:50;;;;;;;12.00;11.30;;;;;;;;;;5036068;28;20112;-66
2022/05/19 08:22:15;;;;;;;11.75;11.05;;;;;;;;;;5033618;28;20475;-66
2022/05/19 08:24:46;;;;;;;12.65;11.75;;;;;;;;;;5035667;28;20570;-65
2022/05/19 08:27:12;;;;;;;11.75;10.85;;;;;;;;;;5036429;28;20544;-66
2022/05/19 08:29:37;;;;;;;10.85;10.18;;;;;;;;;;5031929;28;20041;-66
2022/05/19 08:32:03;;;;;;;12.95;12.15;;;;;;;;;;5034850;28;20048;-66
2022/05/19 08:34:28;;;;;;;11.30;10.60;;;;;;;;;;5029830;28;20505;-65
2022/05/19 08:36:53;;;;;;;11.63;10.93;;;;;;;;;;5035511;28;20411;-66
2022/05/19 08:39:19;;;;;;;12.45;11.65;;;;;;;;;;5035811;28;20376;-66
2022/05/19 08:41:53;;;;;;;11.95;11.25;;;;;;;;;;5032868;28;20036;-66
2022/05/19 08:44:31;;;;;;;12.90;12.18;;;;;;;;;;5033385;28;20364;-66
2022/05/19 08:46:59;;;;;;;14.65;13.85;;;;;;;;;;5035187;28;20037;-66
2022/05/19 08:49:41;;;;;;;13.52;12.73;;;;;;;;;;5033953;28;20034;-67
2022/05/19 08:52:10;;;;;;;13.73;12.90;;;;;;;;;;5034434;28;20064;-66
2022/05/19 08:54:38;;;;;;;14.25;13.45;;;;;;;;;;5024643;28;20033;-66
2022/05/19 08:57:30;;;;;;;11.82;11.10;;;;;;;;;;5035384;28;20040;-66
2022/05/19 09:00:11;;;;;;;13.43;12.63;;;;;;;;;;5036292;28;20041;-66
2022/05/19 09:02:55;;;;;;;13.70;12.90;;;;;;;;;;5032262;28;20037;-66
2022/05/19 09:05:41;;;;;;;14.85;14.02;;;;;;;;;;5033087;28;20041;-66
2022/05/19 09:08:16;;;;;;;19.77;18.70;;;;;;;;;;5032566;28;20039;-66
2022/05/19 09:11:04;;;;;;;17.55;16.52;;;;;;;;;;5035254;28;20469;-66
2022/05/19 09:13:51;;;;;;;12.73;12.00;;;;;;;;;;5036339;28;20038;-66
2022/05/19 09:16:33;;;;;;;22.55;21.33;;;;;;;;;;5035868;28;20103;-66
2022/05/19 09:18:58;;;;;;;24.92;23.63;;;;;;;;;;5019397;28;20072;-65
2022/05/19 09:21:26;;;;;;;20.73;19.63;;;;;;;;;;5034005;28;20037;-67
2022/05/19 09:23:51;;;;;;;25.35;23.90;;;;;;;;;;5034316;28;20128;-66
2022/05/19 09:26:41;;;;;;;28.00;26.50;;;;;;;;;;5037767;28;20116;-66
2022/05/19 09:29:10;;;;;;;26.77;25.38;;;;;;;;;;5031432;28;20589;-66
2022/05/19 09:31:56;;;;;;;30.50;28.80;;;;;;;;;;5032302;28;20038;-66
2022/05/19 09:34:28;;;;;;;26.15;24.77;;;;;;;;;;5032574;28;20032;-65
2022/05/19 09:37:14;;;;;;;31.08;29.30;;;;;;;;;;5032640;28;20097;-65
2022/05/19 09:39:50;;;;;;;26.92;25.50;;;;;;;;;;5036955;28;20036;-66
2022/05/19 09:42:21;;;;;;;28.95;27.45;;;;;;;;;;5034361;28;20067;-66
2022/05/19 09:45:08;;;;;;;31.05;29.45;;;;;;;;;;5032628;28;20033;-66
2022/05/19 09:47:36;;;;;;;34.30;32.53;;;;;;;;;;5034723;28;20459;-66
2022/05/19 09:50:23;;;;;;;33.78;32.00;;;;;;;;;;5032987;28;20033;-66
2022/05/19 09:52:49;;;;;;;16.83;15.88;;;;;;;;;;5035224;28;20394;-66
2022/05/19 09:55:20;;;;;;;29.27;27.73;;;;;;;;;;5032394;28;20029;-66
2022/05/19 09:57:58;;;;;;;36.55;34.67;;;;;;;;;;5034033;28;20478;-66
2022/05/19 10:00:26;;;;;;;38.72;36.75;;;;;;;;;;5033951;28;20530;-66
2022/05/19 10:02:56;;;;;;;38.90;36.92;;;;;;;;;;5030582;28;20107;-64
2022/05/19 10:05:39;;;;;;;29.95;28.35;;;;;;;;;;5031100;28;20044;-66
2022/05/19 10:08:13;;;;;;;39.13;36.15;;;;;;;;;;5034931;28;20039;-66
2022/05/19 10:11:03;;;;;;;41.08;38.97;;;;;;;;;;5032840;28;20085;-65
2022/05/19 10:13:38;;;;;;;36.17;34.30;;;;;;;;;;5035054;28;20025;-67
2022/05/19 10:16:41;;;;;;;36.65;34.75;;;;;;;;;;5030515;28;22220;-66
2022/05/19 10:19:20;;;;;;;36.85;34.85;;;;;;;;;;5028472;28;20029;-67
2022/05/19 10:21:58;;;;;;;58.75;55.75;;;;;;;;;;5033981;28;20030;-65
2022/05/19 10:24:45;;;;;;;38.58;36.58;;;;;;;;;;5032271;28;20021;-66
2022/05/19 10:33:39;;;;;;;45.42;43.13;;;;;;;;;;5034058;28;20036;-67
2022/05/19 10:36:13;;;;;;;60.65;57.58;;;;;;;;;;5031238;28;20025;-66
2022/05/19 10:39:01;;;;;;;45.47;43.17;;;;;;;;;;5031150;28;20037;-66
2022/05/19 10:41:38;;;;;;;43.17;40.97;;;;;;;;;;5031688;28;20538;-67
2022/05/19 10:44:20;;;;;;;74.70;70.95;;;;;;;;;;5032490;28;20049;-67
2022/05/19 10:47:07;;;;;;;74.47;70.68;;;;;;;;;;5032625;28;20400;-65
2022/05/19 10:50:20;;;;;;;77.78;73.88;;;;;;;;;;5032368;28;20029;-66
2022/05/19 10:52:55;;;;;;;51.35;48.75;;;;;;;;;;5008196;28;20151;-66
2022/05/19 10:55:43;;;;;;;41.58;39.45;;;;;;;;;;5034263;28;20029;-66
2022/05/19 10:58:47;;;;;;;64.72;61.42;;;;;;;;;;5033086;28;20485;-66
2022/05/19 11:01:27;;;;;;;39.70;37.67;;;;;;;;;;5016723;28;20044;-67
2022/05/19 11:04:01;;;;;;;62.03;58.67;;;;;;;;;;5030656;28;20029;-66
2022/05/19 11:06:36;;;;;;;47.53;45.08;;;;;;;;;;5032910;28;20535;-66
2022/05/19 11:09:20;;;;;;;45.75;43.35;;;;;;;;;;5034559;28;20044;-67
2022/05/19 11:11:54;;;;;;;41.70;39.60;;;;;;;;;;5031383;28;20079;-67
2022/05/19 11:14:28;;;;;;;53.03;50.33;;;;;;;;;;5031922;28;20033;-66
2022/05/19 11:16:58;;;;;;;44.40;42.10;;;;;;;;;;5029925;28;20045;-67
2022/05/19 11:19:29;;;;;;;66.85;63.45;;;;;;;;;;5030441;28;20079;-69
2022/05/19 11:22:00;;;;;;;68.82;65.35;;;;;;;;;;5032870;28;20120;-67
2022/05/19 11:24:32;;;;;;;59.08;56.03;;;;;;;;;;5034612;28;20033;-66
2022/05/19 11:27:18;;;;;;;74.35;70.65;;;;;;;;;;5035474;28;20466;-66
2022/05/19 11:29:51;;;;;;;48.50;44.90;;;;;;;;;;5037372;28;20094;-66
2022/05/19 11:32:27;;;;;;;58.97;55.97;;;;;;;;;;5035081;28;20510;-66
2022/05/19 11:35:19;;;;;;;49.22;46.72;;;;;;;;;;5035694;28;20658;-66
2022/05/19 11:37:56;;;;;;;60.08;57.03;;;;;;;;;;5037820;28;20186;-67
2022/05/19 11:40:28;;;;;;;63.33;60.10;;;;;;;;;;5035210;28;20037;-66
2022/05/19 11:43:13;;;;;;;66.82;63.47;;;;;;;;;;5034887;28;20482;-66
2022/05/19 11:45:53;;;;;;;49.38;46.80;;;;;;;;;;5037189;28;20564;-66
2022/05/19 11:55:24;;;;;;;99.70;94.75;;;;;;;;;;5006092;28;20057;-66
2022/05/19 11:58:07;;;;;;;102.47;97.40;;;;;;;;;;5035849;28;20509;-66
2022/05/19 12:00:58;;;;;;;97.28;92.45;;;;;;;;;;5037244;28;20068;-67
2022/05/19 12:03:48;;;;;;;104.85;99.65;;;;;;;;;;5036587;28;20121;-66
2022/05/19 12:06:28;;;;;;;110.28;104.80;;;;;;;;;;5039254;28;20052;-66
2022/05/19 12:09:06;;;;;;;;;;;;;;;;;;5034720;28;20520;-66
2022/05/19 12:11:40;;;;;;;107.65;102.35;;;;;;;;;;5034043;28;19982;-66
2022/05/19 12:14:08;;;;;;;108.65;103.32;;;;;;;;;;5031194;28;20029;-65
2022/05/19 12:16:56;;;;;;;109.78;104.35;;;;;;;;;;5032856;28;20622;-66
2022/05/19 12:19:38;;;;;;;97.43;92.60;;;;;;;;;;5034397;28;20284;-66
2022/05/19 12:22:45;;;;;;;99.57;94.68;;;;;;;;;;5034649;28;20359;-66
2022/05/19 12:25:31;;;;;;;93.38;88.78;;;;;;;;;;5035802;28;20518;-67
2022/05/19 12:27:56;;;;;;;97.38;92.53;;;;;;;;;;5036975;28;20030;-67
2022/05/19 12:33:37;;;;;;;107.75;102.45;;;;;;;;;;5033274;28;20111;-66
2022/05/19 12:36:16;;;;;;;93.35;88.70;;;;;;;;;;5035181;28;20095;-67
2022/05/19 12:38:44;;;;;;;104.00;98.88;;;;;;;;;;5038134;28;20107;-66
2022/05/19 12:41:22;;;;;;;118.28;112.45;;;;;;;;;;5035338;28;20025;-66
2022/05/19 12:43:48;;;;;;;84.32;80.13;;;;;;;;;;5037144;28;20120;-66
2022/05/19 12:46:44;;;;;;;112.57;106.97;;;;;;;;;;5035599;28;20033;-66
2022/05/19 12:49:25;;;;;;;96.00;91.25;;;;;;;;;;5033483;28;20025;-67
2022/05/19 12:51:59;;;;;;;55.35;52.55;;;;;;;;;;5034532;28;20073;-66
2022/05/19 12:54:27;;;;;;;88.03;83.63;;;;;;;;;;5034148;28;20029;-66
2022/05/19 12:56:59;;;;;;;95.20;90.47;;;;;;;;;;5032697;28;20033;-66
2022/05/19 12:59:43;;;;;;;104.18;99.00;;;;;;;;;;5035110;28;20029;-66
2022/05/19 13:02:22;;;;;;;88.18;83.82;;;;;;;;;;5037169;28;20650;-66
2022/05/19 13:04:54;;;;;;;70.20;66.60;;;;;;;;;;5031859;28;20064;-66
2022/05/19 13:07:43;;;;;;;47.38;44.97;;;;;;;;;;5035564;28;20025;-66
2022/05/19 13:10:20;;;;;;;50.35;47.78;;;;;;;;;;5033717;28;20095;-66
2022/05/19 13:13:03;;;;;;;44.22;41.92;;;;;;;;;;5034818;28;20048;-66
2022/05/19 13:15:33;;;;;;;48.33;45.83;;;;;;;;;;5032985;28;20035;-65
2022/05/19 13:18:06;;;;;;;50.97;48.33;;;;;;;;;;5033876;28;20145;-68
2022/05/19 13:20:38;;;;;;;47.33;44.92;;;;;;;;;;5036133;28;20390;-67
2022/05/19 13:23:23;;;;;;;58.35;55.40;;;;;;;;;;5031366;28;20033;-66
2022/05/19 13:25:51;;;;;;;53.67;50.95;;;;;;;;;;5027753;28;20048;-66
2022/05/19 13:31:24;;;;;;;58.58;55.60;;;;;;;;;;5029040;28;20037;-66
2022/05/19 13:33:51;;;;;;;;;;;;;;;;;;5030364;28;20033;-66
2022/05/19 13:36:30;;;;;;;40.85;38.78;;;;;;;;;;5031647;28;19951;-66
2022/05/19 13:39:14;;;;;;;54.97;52.17;;;;;;;;;;5024766;28;20037;-66
2022/05/19 13:42:01;;;;;;;49.95;47.30;;;;;;;;;;5028230;28;20048;-65
2022/05/19 13:44:35;;;;;;;47.97;45.47;;;;;;;;;;5027848;28;20433;-66
2022/05/19 13:47:16;;;;;;;52.30;49.65;;;;;;;;;;5027087;28;20029;-66
2022/05/19 13:49:42;;;;;;;45.35;43.05;;;;;;;;;;5026704;28;20426;-67
2022/05/19 13:52:12;;;;;;;55.00;52.20;;;;;;;;;;5027347;28;20025;-66
2022/05/19 13:54:47;;;;;;;48.10;45.60;;;;;;;;;;5025468;28;20036;-65
2022/05/19 13:57:34;;;;;;;57.08;54.20;;;;;;;;;;5027681;28;20041;-64
2022/05/19 14:00:10;;;;;;;45.55;43.22;;;;;;;;;;5028585;28;20113;-67
2022/05/19 14:02:39;;;;;;;44.33;42.03;;;;;;;;;;5026260;28;20103;-66
2022/05/19 14:05:09;;;;;;;46.40;44.00;;;;;;;;;;5027299;28;20033;-66
2022/05/19 14:07:35;;;;;;;;;;;;;;;;;;5025403;28;20041;-65
2022/05/19 14:10:05;;;;;;;54.50;51.72;;;;;;;;;;5027152;28;19977;-66
2022/05/19 14:12:41;;;;;;;52.83;50.13;;;;;;;;;;5027114;28;20029;-65
2022/05/19 14:15:20;;;;;;;47.85;45.35;;;;;;;;;;5023760;28;20052;-65
2022/05/19 14:17:54;;;;;;;57.95;55.00;;;;;;;;;;5026914;28;20031;-66
2022/05/19 14:21:06;;;;;;;51.47;48.80;;;;;;;;;;5028204;28;20049;-67
2022/05/19 14:23:53;;;;;;;67.80;64.35;;;;;;;;;;5019415;28;20045;-66
2022/05/19 14:26:24;;;;;;;54.15;51.42;;;;;;;;;;5026365;28;20033;-64
2022/05/19 14:28:51;;;;;;;56.15;53.05;;;;;;;;;;5027635;28;20041;-66
2022/05/19 14:31:20;;;;;;;52.60;49.95;;;;;;;;;;5028574;28;20037;-64
2022/05/19 14:34:07;;;;;;;50.05;47.53;;;;;;;;;;5025890;28;20043;-64
2022/05/19 14:36:43;;;;;;;57.28;54.25;;;;;;;;;;5026964;28;20034;-64
2022/05/19 14:39:20;;;;;;;84.97;80.57;;;;;;;;;;5025547;28;20056;-64
2022/05/19 14:44:40;;;;;;;52.53;49.83;;;;;;;;;;5025614;28;20052;-64
2022/05/19 14:47:20;;;;;;;52.42;49.78;;;;;;;;;;5028311;28;20040;-65
2022/05/19 14:49:50;;;;;;;53.00;50.15;;;;;;;;;;5024981;28;20457;-64
2022/05/19 14:52:19;;;;;;;56.03;53.17;;;;;;;;;;5027443;28;20531;-65
2022/05/19 14:54:44;;;;;;;53.55;50.85;;;;;;;;;;5024495;28;21169;-65
2022/05/19 14:57:19;;;;;;;60.00;56.97;;;;;;;;;;5028528;28;20041;-64
2022/05/19 14:59:55;;;;;;;51.35;48.65;;;;;;;;;;5024563;28;20040;-65
2022/05/19 15:02:22;;;;;;;54.17;51.40;;;;;;;;;;5026873;28;20052;-65
2022/05/19 15:04:48;;;;;;;48.35;45.88;;;;;;;;;;5023617;28;20183;-64
2022/05/19 15:07:39;;;;;;;51.15;48.53;;;;;;;;;;5027682;28;20923;-64
2022/05/19 15:10:05;;;;;;;57.50;54.50;;;;;;;;;;5021889;28;20037;-64
2022/05/19 15:12:30;;;;;;;63.80;60.60;;;;;;;;;;5027078;28;20103;-65
2022/05/19 15:14:56;;;;;;;48.05;45.60;;;;;;;;;;5025348;28;20029;-63